sensor_id;sensor_type;location;lat;lon;timestamp;P1;durP1;ratioP1;P2;durP2;ratioP2
47349;SDS011;33088;51.982;5.872;2022-07-23T00:02:06;2.05;;;1.88;;
47349;SDS011;33088;51.982;5.872;2022-07-23T00:04:32;3.03;;;2.72;;
47349;SDS011;33088;51.982;5.872;2022-07-23T00:06:58;7.13;;;3.03;;
47349;SDS011;33088;51.982;5.872;2022-07-23T00:09:24;3.22;;;2.50;;
47349;SDS011;33088;51.982;5.872;2022-07-23T00:11:50;3.35;;;2.42;;
47349;SDS011;33088;51.982;5.872;2022-07-23T00:14:16;3.95;;;2.40;;
47349;SDS011;33088;51.982;5.872;2022-07-23T00:16:41;6.50;;;3.45;;
47349;SDS011;33088;51.982;5.872;2022-07-23T00:19:07;7.93;;;2.92;;
47349;SDS011;33088;51.982;5.872;2022-07-23T00:21:33;4.40;;;3.10;;
47349;SDS011;33088;51.982;5.872;2022-07-23T00:23:58;5.32;;;3.17;;
47349;SDS011;33088;51.982;5.872;2022-07-23T00:26:24;5.88;;;3.30;;
47349;SDS011;33088;51.982;5.872;2022-07-23T00:28:50;3.97;;;3.13;;
47349;SDS011;33088;51.982;5.872;2022-07-23T00:31:15;6.10;;;3.20;;
47349;SDS011;33088;51.982;5.872;2022-07-23T00:33:41;4.20;;;2.80;;
47349;SDS011;33088;51.982;5.872;2022-07-23T00:36:07;6.68;;;3.13;;
47349;SDS011;33088;51.982;5.872;2022-07-23T00:38:33;4.93;;;3.13;;
47349;SDS011;33088;51.982;5.872;2022-07-23T00:40:59;4.50;;;2.90;;
47349;SDS011;33088;51.982;5.872;2022-07-23T00:43:25;5.43;;;4.53;;
47349;SDS011;33088;51.982;5.872;2022-07-23T00:45:51;5.20;;;3.42;;
47349;SDS011;33088;51.982;5.872;2022-07-23T00:48:16;3.58;;;3.28;;
47349;SDS011;33088;51.982;5.872;2022-07-23T00:50:42;7.00;;;3.53;;
47349;SDS011;33088;51.982;5.872;2022-07-23T00:53:09;6.03;;;3.53;;
47349;SDS011;33088;51.982;5.872;2022-07-23T00:55:35;4.03;;;3.33;;
47349;SDS011;33088;51.982;5.872;2022-07-23T00:58:01;5.95;;;4.13;;
47349;SDS011;33088;51.982;5.872;2022-07-23T01:00:27;7.45;;;3.78;;
47349;SDS011;33088;51.982;5.872;2022-07-23T01:02:53;7.80;;;3.50;;
47349;SDS011;33088;51.982;5.872;2022-07-23T01:05:20;4.40;;;3.72;;
47349;SDS011;33088;51.982;5.872;2022-07-23T01:07:50;6.40;;;3.90;;
47349;SDS011;33088;51.982;5.872;2022-07-23T01:10:17;8.02;;;4.47;;
47349;SDS011;33088;51.982;5.872;2022-07-23T01:13:02;5.18;;;4.68;;
47349;SDS011;33088;51.982;5.872;2022-07-23T01:15:30;6.63;;;4.03;;
47349;SDS011;33088;51.982;5.872;2022-07-23T01:17:57;5.53;;;3.70;;
47349;SDS011;33088;51.982;5.872;2022-07-23T01:20:23;4.65;;;3.92;;
47349;SDS011;33088;51.982;5.872;2022-07-23T01:22:50;6.80;;;3.97;;
47349;SDS011;33088;51.982;5.872;2022-07-23T01:25:17;5.70;;;3.63;;
47349;SDS011;33088;51.982;5.872;2022-07-23T01:27:52;8.43;;;4.22;;
47349;SDS011;33088;51.982;5.872;2022-07-23T01:30:18;5.68;;;4.10;;
47349;SDS011;33088;51.982;5.872;2022-07-23T01:32:45;9.05;;;4.53;;
47349;SDS011;33088;51.982;5.872;2022-07-23T01:35:11;8.27;;;4.38;;
47349;SDS011;33088;51.982;5.872;2022-07-23T01:37:38;7.35;;;3.95;;
47349;SDS011;33088;51.982;5.872;2022-07-23T01:40:05;13.02;;;4.07;;
47349;SDS011;33088;51.982;5.872;2022-07-23T01:42:31;6.18;;;4.00;;
47349;SDS011;33088;51.982;5.872;2022-07-23T01:44:57;3.70;;;3.40;;
47349;SDS011;33088;51.982;5.872;2022-07-23T01:47:23;6.43;;;3.53;;
47349;SDS011;33088;51.982;5.872;2022-07-23T01:49:51;5.22;;;3.70;;
47349;SDS011;33088;51.982;5.872;2022-07-23T01:52:31;6.75;;;3.80;;
47349;SDS011;33088;51.982;5.872;2022-07-23T01:54:57;4.53;;;3.45;;
47349;SDS011;33088;51.982;5.872;2022-07-23T01:57:23;4.95;;;3.55;;
47349;SDS011;33088;51.982;5.872;2022-07-23T01:59:49;5.22;;;3.67;;
47349;SDS011;33088;51.982;5.872;2022-07-23T02:02:17;6.53;;;3.78;;
47349;SDS011;33088;51.982;5.872;2022-07-23T02:04:43;4.88;;;3.55;;
47349;SDS011;33088;51.982;5.872;2022-07-23T02:07:09;3.47;;;3.17;;
47349;SDS011;33088;51.982;5.872;2022-07-23T02:09:34;5.80;;;3.35;;
47349;SDS011;33088;51.982;5.872;2022-07-23T02:12:00;7.15;;;4.25;;
47349;SDS011;33088;51.982;5.872;2022-07-23T02:14:26;7.60;;;3.15;;
47349;SDS011;33088;51.982;5.872;2022-07-23T02:16:52;5.88;;;3.40;;
47349;SDS011;33088;51.982;5.872;2022-07-23T02:19:18;5.40;;;3.10;;
47349;SDS011;33088;51.982;5.872;2022-07-23T02:21:44;8.13;;;3.58;;
47349;SDS011;33088;51.982;5.872;2022-07-23T02:24:10;4.50;;;3.00;;
47349;SDS011;33088;51.982;5.872;2022-07-23T02:26:36;4.68;;;3.33;;
47349;SDS011;33088;51.982;5.872;2022-07-23T02:29:04;6.07;;;3.47;;
47349;SDS011;33088;51.982;5.872;2022-07-23T02:31:31;4.22;;;2.97;;
47349;SDS011;33088;51.982;5.872;2022-07-23T02:33:57;7.32;;;3.65;;
47349;SDS011;33088;51.982;5.872;2022-07-23T02:36:23;4.72;;;2.95;;
47349;SDS011;33088;51.982;5.872;2022-07-23T02:38:51;4.55;;;3.15;;
47349;SDS011;33088;51.982;5.872;2022-07-23T02:41:16;4.70;;;3.40;;
47349;SDS011;33088;51.982;5.872;2022-07-23T02:43:42;5.85;;;3.55;;
47349;SDS011;33088;51.982;5.872;2022-07-23T02:46:10;8.07;;;3.30;;
47349;SDS011;33088;51.982;5.872;2022-07-23T02:48:36;3.40;;;2.95;;
47349;SDS011;33088;51.982;5.872;2022-07-23T02:51:02;5.95;;;2.72;;
47349;SDS011;33088;51.982;5.872;2022-07-23T02:53:33;3.40;;;2.53;;
47349;SDS011;33088;51.982;5.872;2022-07-23T02:55:59;6.57;;;2.90;;
47349;SDS011;33088;51.982;5.872;2022-07-23T02:58:25;5.13;;;3.15;;
47349;SDS011;33088;51.982;5.872;2022-07-23T03:00:52;3.17;;;2.88;;
47349;SDS011;33088;51.982;5.872;2022-07-23T03:03:18;3.67;;;3.08;;
47349;SDS011;33088;51.982;5.872;2022-07-23T03:05:43;4.68;;;2.70;;
47349;SDS011;33088;51.982;5.872;2022-07-23T03:08:09;6.53;;;3.03;;
47349;SDS011;33088;51.982;5.872;2022-07-23T03:10:37;5.50;;;2.92;;
47349;SDS011;33088;51.982;5.872;2022-07-23T03:13:03;4.57;;;2.47;;
47349;SDS011;33088;51.982;5.872;2022-07-23T03:15:29;4.13;;;2.50;;
47349;SDS011;33088;51.982;5.872;2022-07-23T03:17:55;5.90;;;3.92;;
47349;SDS011;33088;51.982;5.872;2022-07-23T03:20:20;4.32;;;2.55;;
47349;SDS011;33088;51.982;5.872;2022-07-23T03:22:46;4.65;;;2.95;;
47349;SDS011;33088;51.982;5.872;2022-07-23T03:25:12;5.38;;;2.40;;
47349;SDS011;33088;51.982;5.872;2022-07-23T03:27:38;5.28;;;2.53;;
47349;SDS011;33088;51.982;5.872;2022-07-23T03:30:03;7.22;;;2.75;;
47349;SDS011;33088;51.982;5.872;2022-07-23T03:32:32;6.05;;;2.55;;
47349;SDS011;33088;51.982;5.872;2022-07-23T03:34:58;4.65;;;2.22;;
47349;SDS011;33088;51.982;5.872;2022-07-23T03:37:24;3.35;;;2.38;;
47349;SDS011;33088;51.982;5.872;2022-07-23T03:39:50;4.03;;;2.55;;
47349;SDS011;33088;51.982;5.872;2022-07-23T03:42:16;3.13;;;2.17;;
47349;SDS011;33088;51.982;5.872;2022-07-23T03:44:44;3.08;;;1.98;;
47349;SDS011;33088;51.982;5.872;2022-07-23T03:47:10;4.38;;;2.80;;
47349;SDS011;33088;51.982;5.872;2022-07-23T03:49:36;3.20;;;2.05;;
47349;SDS011;33088;51.982;5.872;2022-07-23T03:52:02;4.25;;;2.53;;
47349;SDS011;33088;51.982;5.872;2022-07-23T03:54:29;4.35;;;2.20;;
47349;SDS011;33088;51.982;5.872;2022-07-23T03:56:55;4.03;;;2.20;;
47349;SDS011;33088;51.982;5.872;2022-07-23T03:59:21;4.95;;;2.00;;
47349;SDS011;33088;51.982;5.872;2022-07-23T04:01:47;4.88;;;2.38;;
47349;SDS011;33088;51.982;5.872;2022-07-23T04:04:13;3.83;;;2.58;;
47349;SDS011;33088;51.982;5.872;2022-07-23T04:06:40;5.43;;;2.38;;
47349;SDS011;33088;51.982;5.872;2022-07-23T04:09:05;2.25;;;2.05;;
47349;SDS011;33088;51.982;5.872;2022-07-23T04:11:32;4.00;;;2.08;;
47349;SDS011;33088;51.982;5.872;2022-07-23T04:13:57;4.15;;;2.33;;
47349;SDS011;33088;51.982;5.872;2022-07-23T04:16:23;5.13;;;2.10;;
47349;SDS011;33088;51.982;5.872;2022-07-23T04:18:49;4.80;;;2.55;;
47349;SDS011;33088;51.982;5.872;2022-07-23T04:21:18;4.40;;;2.63;;
47349;SDS011;33088;51.982;5.872;2022-07-23T04:23:46;3.60;;;2.42;;
47349;SDS011;33088;51.982;5.872;2022-07-23T04:26:12;4.28;;;3.17;;
47349;SDS011;33088;51.982;5.872;2022-07-23T04:28:38;4.30;;;2.45;;
47349;SDS011;33088;51.982;5.872;2022-07-23T04:31:04;2.58;;;2.30;;
47349;SDS011;33088;51.982;5.872;2022-07-23T04:33:31;3.72;;;2.08;;
47349;SDS011;33088;51.982;5.872;2022-07-23T04:35:58;2.15;;;2.05;;
47349;SDS011;33088;51.982;5.872;2022-07-23T04:38:24;3.25;;;2.03;;
47349;SDS011;33088;51.982;5.872;2022-07-23T04:40:54;4.57;;;2.85;;
47349;SDS011;33088;51.982;5.872;2022-07-23T04:43:20;5.30;;;1.90;;
47349;SDS011;33088;51.982;5.872;2022-07-23T04:45:48;4.80;;;2.15;;
47349;SDS011;33088;51.982;5.872;2022-07-23T04:48:14;6.78;;;2.00;;
47349;SDS011;33088;51.982;5.872;2022-07-23T04:50:40;3.60;;;2.00;;
47349;SDS011;33088;51.982;5.872;2022-07-23T04:53:14;2.42;;;2.22;;
47349;SDS011;33088;51.982;5.872;2022-07-23T04:55:41;3.58;;;2.15;;
47349;SDS011;33088;51.982;5.872;2022-07-23T04:58:06;4.85;;;1.67;;
47349;SDS011;33088;51.982;5.872;2022-07-23T05:00:32;5.85;;;1.98;;
47349;SDS011;33088;51.982;5.872;2022-07-23T05:02:58;3.20;;;2.00;;
47349;SDS011;33088;51.982;5.872;2022-07-23T05:05:24;4.55;;;2.47;;
47349;SDS011;33088;51.982;5.872;2022-07-23T05:07:52;4.65;;;2.05;;
47349;SDS011;33088;51.982;5.872;2022-07-23T05:10:18;2.30;;;1.70;;
47349;SDS011;33088;51.982;5.872;2022-07-23T05:12:45;3.70;;;1.80;;
47349;SDS011;33088;51.982;5.872;2022-07-23T05:15:10;1.90;;;1.75;;
47349;SDS011;33088;51.982;5.872;2022-07-23T05:17:36;3.00;;;1.80;;
47349;SDS011;33088;51.982;5.872;2022-07-23T05:20:09;6.63;;;2.13;;
47349;SDS011;33088;51.982;5.872;2022-07-23T05:22:35;2.17;;;1.75;;
47349;SDS011;33088;51.982;5.872;2022-07-23T05:25:01;2.47;;;1.52;;
47349;SDS011;33088;51.982;5.872;2022-07-23T05:27:27;2.15;;;1.88;;
47349;SDS011;33088;51.982;5.872;2022-07-23T05:29:52;2.35;;;1.55;;
47349;SDS011;33088;51.982;5.872;2022-07-23T05:32:18;4.63;;;1.98;;
47349;SDS011;33088;51.982;5.872;2022-07-23T05:34:52;1.50;;;1.40;;
47349;SDS011;33088;51.982;5.872;2022-07-23T05:37:18;2.60;;;1.40;;
47349;SDS011;33088;51.982;5.872;2022-07-23T05:39:43;2.42;;;1.40;;
47349;SDS011;33088;51.982;5.872;2022-07-23T05:42:09;3.33;;;1.60;;
47349;SDS011;33088;51.982;5.872;2022-07-23T05:44:35;6.50;;;1.58;;
47349;SDS011;33088;51.982;5.872;2022-07-23T05:47:01;3.58;;;1.20;;
47349;SDS011;33088;51.982;5.872;2022-07-23T05:49:27;2.67;;;1.52;;
47349;SDS011;33088;51.982;5.872;2022-07-23T05:52:09;2.47;;;1.30;;
47349;SDS011;33088;51.982;5.872;2022-07-23T05:54:53;1.75;;;1.10;;
47349;SDS011;33088;51.982;5.872;2022-07-23T05:57:21;3.63;;;1.20;;
47349;SDS011;33088;51.982;5.872;2022-07-23T05:59:47;1.70;;;1.17;;
47349;SDS011;33088;51.982;5.872;2022-07-23T06:02:13;3.75;;;1.30;;
47349;SDS011;33088;51.982;5.872;2022-07-23T06:04:39;4.93;;;1.65;;
47349;SDS011;33088;51.982;5.872;2022-07-23T06:07:19;2.42;;;1.30;;
47349;SDS011;33088;51.982;5.872;2022-07-23T06:09:44;2.88;;;1.35;;
47349;SDS011;33088;51.982;5.872;2022-07-23T06:12:12;2.38;;;1.42;;
47349;SDS011;33088;51.982;5.872;2022-07-23T06:14:38;3.05;;;1.60;;
47349;SDS011;33088;51.982;5.872;2022-07-23T06:17:03;2.55;;;1.60;;
47349;SDS011;33088;51.982;5.872;2022-07-23T06:19:30;1.67;;;1.20;;
47349;SDS011;33088;51.982;5.872;2022-07-23T06:21:55;2.55;;;1.40;;
47349;SDS011;33088;51.982;5.872;2022-07-23T06:24:21;4.45;;;1.52;;
47349;SDS011;33088;51.982;5.872;2022-07-23T06:26:48;3.35;;;1.67;;
47349;SDS011;33088;51.982;5.872;2022-07-23T06:29:14;2.15;;;1.45;;
47349;SDS011;33088;51.982;5.872;2022-07-23T06:31:41;5.93;;;1.60;;
47349;SDS011;33088;51.982;5.872;2022-07-23T06:34:06;1.90;;;1.20;;
47349;SDS011;33088;51.982;5.872;2022-07-23T06:36:34;4.72;;;2.00;;
47349;SDS011;33088;51.982;5.872;2022-07-23T06:39:00;4.00;;;1.58;;
47349;SDS011;33088;51.982;5.872;2022-07-23T06:41:26;5.78;;;2.20;;
47349;SDS011;33088;51.982;5.872;2022-07-23T06:43:51;6.55;;;1.80;;
47349;SDS011;33088;51.982;5.872;2022-07-23T06:46:20;3.35;;;1.55;;
47349;SDS011;33088;51.982;5.872;2022-07-23T06:48:48;3.35;;;1.95;;
47349;SDS011;33088;51.982;5.872;2022-07-23T06:51:13;4.43;;;1.63;;
47349;SDS011;33088;51.982;5.872;2022-07-23T06:53:39;5.95;;;2.97;;
47349;SDS011;33088;51.982;5.872;2022-07-23T06:56:08;3.35;;;1.98;;
47349;SDS011;33088;51.982;5.872;2022-07-23T06:58:33;4.05;;;2.08;;
47349;SDS011;33088;51.982;5.872;2022-07-23T07:00:59;6.88;;;1.83;;
47349;SDS011;33088;51.982;5.872;2022-07-23T07:03:25;4.00;;;1.80;;
47349;SDS011;33088;51.982;5.872;2022-07-23T07:05:50;1.85;;;1.60;;
47349;SDS011;33088;51.982;5.872;2022-07-23T07:08:17;3.72;;;2.00;;
47349;SDS011;33088;51.982;5.872;2022-07-23T07:10:43;4.85;;;2.08;;
47349;SDS011;33088;51.982;5.872;2022-07-23T07:13:08;3.97;;;1.80;;
47349;SDS011;33088;51.982;5.872;2022-07-23T07:15:34;3.05;;;1.90;;
47349;SDS011;33088;51.982;5.872;2022-07-23T07:18:00;1.90;;;1.40;;
47349;SDS011;33088;51.982;5.872;2022-07-23T07:20:25;3.35;;;1.70;;
47349;SDS011;33088;51.982;5.872;2022-07-23T07:22:51;3.50;;;1.58;;
47349;SDS011;33088;51.982;5.872;2022-07-23T07:25:17;4.55;;;2.28;;
47349;SDS011;33088;51.982;5.872;2022-07-23T07:27:43;5.10;;;2.22;;
47349;SDS011;33088;51.982;5.872;2022-07-23T07:30:09;3.95;;;1.60;;
47349;SDS011;33088;51.982;5.872;2022-07-23T07:32:35;4.57;;;2.42;;
47349;SDS011;33088;51.982;5.872;2022-07-23T07:35:02;3.63;;;1.95;;
47349;SDS011;33088;51.982;5.872;2022-07-23T07:37:29;3.85;;;1.70;;
47349;SDS011;33088;51.982;5.872;2022-07-23T07:39:55;4.05;;;1.90;;
47349;SDS011;33088;51.982;5.872;2022-07-23T07:42:20;2.33;;;1.85;;
47349;SDS011;33088;51.982;5.872;2022-07-23T07:44:46;2.45;;;1.33;;
47349;SDS011;33088;51.982;5.872;2022-07-23T07:47:12;3.08;;;1.65;;
47349;SDS011;33088;51.982;5.872;2022-07-23T07:49:40;7.22;;;2.20;;
47349;SDS011;33088;51.982;5.872;2022-07-23T07:52:09;3.33;;;1.50;;
47349;SDS011;33088;51.982;5.872;2022-07-23T07:54:35;2.10;;;1.83;;
47349;SDS011;33088;51.982;5.872;2022-07-23T07:57:01;2.83;;;1.30;;
47349;SDS011;33088;51.982;5.872;2022-07-23T07:59:27;3.80;;;1.52;;
47349;SDS011;33088;51.982;5.872;2022-07-23T08:01:53;1.50;;;1.23;;
47349;SDS011;33088;51.982;5.872;2022-07-23T08:04:19;2.63;;;1.60;;
47349;SDS011;33088;51.982;5.872;2022-07-23T08:06:44;1.60;;;1.20;;
47349;SDS011;33088;51.982;5.872;2022-07-23T08:09:10;3.45;;;2.17;;
47349;SDS011;33088;51.982;5.872;2022-07-23T08:11:36;5.93;;;2.40;;
47349;SDS011;33088;51.982;5.872;2022-07-23T08:14:02;4.63;;;2.33;;
47349;SDS011;33088;51.982;5.872;2022-07-23T08:16:27;4.28;;;1.77;;
47349;SDS011;33088;51.982;5.872;2022-07-23T08:18:53;4.00;;;1.83;;
47349;SDS011;33088;51.982;5.872;2022-07-23T08:21:19;3.00;;;1.75;;
47349;SDS011;33088;51.982;5.872;2022-07-23T08:23:46;3.35;;;1.60;;
47349;SDS011;33088;51.982;5.872;2022-07-23T08:26:11;2.97;;;1.75;;
47349;SDS011;33088;51.982;5.872;2022-07-23T08:28:37;3.65;;;1.38;;
47349;SDS011;33088;51.982;5.872;2022-07-23T08:31:03;2.75;;;1.60;;
47349;SDS011;33088;51.982;5.872;2022-07-23T08:33:30;3.13;;;1.80;;
47349;SDS011;33088;51.982;5.872;2022-07-23T08:35:56;2.45;;;2.17;;
47349;SDS011;33088;51.982;5.872;2022-07-23T08:38:22;2.55;;;2.00;;
47349;SDS011;33088;51.982;5.872;2022-07-23T08:40:51;4.28;;;2.00;;
47349;SDS011;33088;51.982;5.872;2022-07-23T08:43:19;3.97;;;2.00;;
47349;SDS011;33088;51.982;5.872;2022-07-23T08:45:47;3.13;;;1.73;;
47349;SDS011;33088;51.982;5.872;2022-07-23T08:48:15;2.03;;;1.48;;
47349;SDS011;33088;51.982;5.872;2022-07-23T08:50:52;3.60;;;1.60;;
47349;SDS011;33088;51.982;5.872;2022-07-23T08:53:19;4.43;;;1.90;;
47349;SDS011;33088;51.982;5.872;2022-07-23T08:55:47;3.15;;;1.83;;
47349;SDS011;33088;51.982;5.872;2022-07-23T08:58:15;1.75;;;1.58;;
47349;SDS011;33088;51.982;5.872;2022-07-23T09:00:42;3.13;;;1.67;;
47349;SDS011;33088;51.982;5.872;2022-07-23T09:03:15;2.50;;;1.38;;
47349;SDS011;33088;51.982;5.872;2022-07-23T09:05:49;2.42;;;1.63;;
47349;SDS011;33088;51.982;5.872;2022-07-23T09:10:51;3.97;;;1.65;;
47349;SDS011;33088;51.982;5.872;2022-07-23T09:16:11;1.60;;;1.42;;
47349;SDS011;33088;51.982;5.872;2022-07-23T09:23:49;2.47;;;1.80;;
47349;SDS011;33088;51.982;5.872;2022-07-23T09:26:29;3.08;;;1.80;;
47349;SDS011;33088;51.982;5.872;2022-07-23T09:29:03;2.17;;;1.40;;
47349;SDS011;33088;51.982;5.872;2022-07-23T09:37:10;4.55;;;1.40;;
47349;SDS011;33088;51.982;5.872;2022-07-23T09:39:41;5.28;;;1.70;;
47349;SDS011;33088;51.982;5.872;2022-07-23T09:42:19;3.53;;;1.40;;
47349;SDS011;33088;51.982;5.872;2022-07-23T09:44:53;2.38;;;1.42;;
47349;SDS011;33088;51.982;5.872;2022-07-23T09:47:23;2.05;;;1.70;;
47349;SDS011;33088;51.982;5.872;2022-07-23T09:50:01;6.78;;;2.20;;
47349;SDS011;33088;51.982;5.872;2022-07-23T09:52:34;1.85;;;1.70;;
47349;SDS011;33088;51.982;5.872;2022-07-23T09:55:11;3.20;;;1.60;;
47349;SDS011;33088;51.982;5.872;2022-07-23T09:57:37;1.83;;;1.45;;
47349;SDS011;33088;51.982;5.872;2022-07-23T10:00:07;1.60;;;1.45;;
47349;SDS011;33088;51.982;5.872;2022-07-23T10:02:35;2.47;;;1.88;;
47349;SDS011;33088;51.982;5.872;2022-07-23T10:05:21;2.67;;;1.50;;
47349;SDS011;33088;51.982;5.872;2022-07-23T10:08:06;2.40;;;1.20;;
47349;SDS011;33088;51.982;5.872;2022-07-23T10:10:54;1.50;;;1.40;;
47349;SDS011;33088;51.982;5.872;2022-07-23T10:13:39;6.05;;;1.65;;
47349;SDS011;33088;51.982;5.872;2022-07-23T10:16:30;4.43;;;1.98;;
47349;SDS011;33088;51.982;5.872;2022-07-23T10:18:56;2.05;;;1.65;;
47349;SDS011;33088;51.982;5.872;2022-07-23T10:21:24;3.03;;;1.80;;
47349;SDS011;33088;51.982;5.872;2022-07-23T10:24:25;6.72;;;2.05;;
47349;SDS011;33088;51.982;5.872;2022-07-23T10:27:20;2.88;;;1.75;;
47349;SDS011;33088;51.982;5.872;2022-07-23T10:30:09;2.95;;;1.85;;
47349;SDS011;33088;51.982;5.872;2022-07-23T10:35:47;2.88;;;1.50;;
47349;SDS011;33088;51.982;5.872;2022-07-23T10:41:40;3.10;;;1.83;;
47349;SDS011;33088;51.982;5.872;2022-07-23T10:44:13;4.82;;;2.10;;
47349;SDS011;33088;51.982;5.872;2022-07-23T10:47:21;2.40;;;1.63;;
47349;SDS011;33088;51.982;5.872;2022-07-23T10:57:56;3.85;;;2.10;;
47349;SDS011;33088;51.982;5.872;2022-07-23T11:00:22;2.45;;;2.20;;
47349;SDS011;33088;51.982;5.872;2022-07-23T11:03:00;4.05;;;2.03;;
47349;SDS011;33088;51.982;5.872;2022-07-23T11:26:56;5.63;;;1.90;;
47349;SDS011;33088;51.982;5.872;2022-07-23T11:31:57;3.80;;;2.20;;
47349;SDS011;33088;51.982;5.872;2022-07-23T11:37:02;3.83;;;1.77;;
47349;SDS011;33088;51.982;5.872;2022-07-23T11:39:30;2.88;;;2.25;;
47349;SDS011;33088;51.982;5.872;2022-07-23T11:41:56;2.80;;;2.15;;
47349;SDS011;33088;51.982;5.872;2022-07-23T11:44:30;3.50;;;1.80;;
47349;SDS011;33088;51.982;5.872;2022-07-23T11:47:05;3.20;;;2.00;;
47349;SDS011;33088;51.982;5.872;2022-07-23T11:49:32;2.28;;;1.90;;
47349;SDS011;33088;51.982;5.872;2022-07-23T11:52:03;4.43;;;1.95;;
47349;SDS011;33088;51.982;5.872;2022-07-23T11:54:30;3.00;;;2.03;;
47349;SDS011;33088;51.982;5.872;2022-07-23T11:56:56;2.35;;;1.80;;
47349;SDS011;33088;51.982;5.872;2022-07-23T11:59:24;2.10;;;1.40;;
47349;SDS011;33088;51.982;5.872;2022-07-23T12:01:58;2.10;;;1.85;;
47349;SDS011;33088;51.982;5.872;2022-07-23T12:04:28;4.45;;;2.50;;
47349;SDS011;33088;51.982;5.872;2022-07-23T12:09:58;3.85;;;1.67;;
47349;SDS011;33088;51.982;5.872;2022-07-23T12:12:34;1.88;;;1.70;;
47349;SDS011;33088;51.982;5.872;2022-07-23T12:15:02;3.17;;;2.20;;
47349;SDS011;33088;51.982;5.872;2022-07-23T12:17:29;3.97;;;1.85;;
47349;SDS011;33088;51.982;5.872;2022-07-23T12:19:57;2.05;;;1.77;;
47349;SDS011;33088;51.982;5.872;2022-07-23T12:22:24;2.35;;;2.15;;
47349;SDS011;33088;51.982;5.872;2022-07-23T12:24:55;3.67;;;1.80;;
47349;SDS011;33088;51.982;5.872;2022-07-23T12:27:23;5.83;;;2.77;;
47349;SDS011;33088;51.982;5.872;2022-07-23T12:29:49;3.40;;;2.15;;
47349;SDS011;33088;51.982;5.872;2022-07-23T12:32:19;2.58;;;2.28;;
47349;SDS011;33088;51.982;5.872;2022-07-23T12:35:01;2.05;;;1.73;;
47349;SDS011;33088;51.982;5.872;2022-07-23T12:37:33;4.47;;;1.90;;
47349;SDS011;33088;51.982;5.872;2022-07-23T12:40:24;2.78;;;2.22;;
47349;SDS011;33088;51.982;5.872;2022-07-23T12:45:41;5.43;;;2.30;;
47349;SDS011;33088;51.982;5.872;2022-07-23T12:48:08;2.78;;;2.05;;
47349;SDS011;33088;51.982;5.872;2022-07-23T12:53:14;2.83;;;1.88;;
47349;SDS011;33088;51.982;5.872;2022-07-23T12:58:09;4.22;;;2.42;;
47349;SDS011;33088;51.982;5.872;2022-07-23T13:00:51;3.67;;;1.92;;
47349;SDS011;33088;51.982;5.872;2022-07-23T13:03:20;1.80;;;1.70;;
47349;SDS011;33088;51.982;5.872;2022-07-23T13:05:57;2.83;;;2.10;;
47349;SDS011;33088;51.982;5.872;2022-07-23T13:08:24;2.67;;;2.00;;
47349;SDS011;33088;51.982;5.872;2022-07-23T13:10:52;4.03;;;2.15;;
47349;SDS011;33088;51.982;5.872;2022-07-23T13:13:23;2.00;;;1.83;;
47349;SDS011;33088;51.982;5.872;2022-07-23T13:15:49;2.80;;;1.90;;
47349;SDS011;33088;51.982;5.872;2022-07-23T13:18:16;4.82;;;2.08;;
47349;SDS011;33088;51.982;5.872;2022-07-23T13:20:43;2.25;;;2.00;;
47349;SDS011;33088;51.982;5.872;2022-07-23T13:23:13;5.32;;;2.55;;
47349;SDS011;33088;51.982;5.872;2022-07-23T13:25:39;2.58;;;2.00;;
47349;SDS011;33088;51.982;5.872;2022-07-23T13:28:05;6.07;;;2.50;;
47349;SDS011;33088;51.982;5.872;2022-07-23T13:30:31;3.67;;;2.10;;
47349;SDS011;33088;51.982;5.872;2022-07-23T13:32:57;3.03;;;2.22;;
47349;SDS011;33088;51.982;5.872;2022-07-23T13:35:22;4.10;;;2.05;;
47349;SDS011;33088;51.982;5.872;2022-07-23T13:37:48;3.10;;;2.05;;
47349;SDS011;33088;51.982;5.872;2022-07-23T13:40:14;3.10;;;2.10;;
47349;SDS011;33088;51.982;5.872;2022-07-23T13:42:40;3.33;;;1.88;;
47349;SDS011;33088;51.982;5.872;2022-07-23T13:45:05;2.38;;;2.10;;
47349;SDS011;33088;51.982;5.872;2022-07-23T13:47:32;2.45;;;1.83;;
47349;SDS011;33088;51.982;5.872;2022-07-23T13:49:58;3.55;;;2.40;;
47349;SDS011;33088;51.982;5.872;2022-07-23T13:52:24;1.88;;;1.60;;
47349;SDS011;33088;51.982;5.872;2022-07-23T13:54:50;2.28;;;2.03;;
47349;SDS011;33088;51.982;5.872;2022-07-23T13:57:16;2.25;;;1.92;;
47349;SDS011;33088;51.982;5.872;2022-07-23T13:59:42;3.40;;;2.10;;
47349;SDS011;33088;51.982;5.872;2022-07-23T14:02:08;2.67;;;2.13;;
47349;SDS011;33088;51.982;5.872;2022-07-23T14:04:34;2.53;;;2.00;;
47349;SDS011;33088;51.982;5.872;2022-07-23T14:07:00;3.17;;;2.00;;
47349;SDS011;33088;51.982;5.872;2022-07-23T14:09:26;2.85;;;2.45;;
47349;SDS011;33088;51.982;5.872;2022-07-23T14:11:52;1.92;;;1.75;;
47349;SDS011;33088;51.982;5.872;2022-07-23T14:14:18;3.38;;;2.10;;
47349;SDS011;33088;51.982;5.872;2022-07-23T14:16:44;4.13;;;2.70;;
47349;SDS011;33088;51.982;5.872;2022-07-23T14:19:10;3.70;;;2.53;;
47349;SDS011;33088;51.982;5.872;2022-07-23T14:21:36;4.97;;;2.33;;
47349;SDS011;33088;51.982;5.872;2022-07-23T14:24:02;3.05;;;2.28;;
47349;SDS011;33088;51.982;5.872;2022-07-23T14:26:28;2.83;;;2.50;;
47349;SDS011;33088;51.982;5.872;2022-07-23T14:28:54;6.47;;;2.28;;
47349;SDS011;33088;51.982;5.872;2022-07-23T14:31:21;4.43;;;2.35;;
47349;SDS011;33088;51.982;5.872;2022-07-23T14:33:47;5.47;;;2.35;;
47349;SDS011;33088;51.982;5.872;2022-07-23T14:36:13;4.05;;;2.17;;
47349;SDS011;33088;51.982;5.872;2022-07-23T14:38:38;4.18;;;2.35;;
47349;SDS011;33088;51.982;5.872;2022-07-23T14:41:04;3.58;;;2.17;;
47349;SDS011;33088;51.982;5.872;2022-07-23T14:43:32;4.10;;;2.38;;
47349;SDS011;33088;51.982;5.872;2022-07-23T14:45:58;3.78;;;2.20;;
47349;SDS011;33088;51.982;5.872;2022-07-23T14:48:23;3.15;;;2.50;;
47349;SDS011;33088;51.982;5.872;2022-07-23T14:50:49;2.40;;;1.92;;
47349;SDS011;33088;51.982;5.872;2022-07-23T14:53:15;5.63;;;2.75;;
47349;SDS011;33088;51.982;5.872;2022-07-23T14:55:41;3.30;;;2.40;;
47349;SDS011;33088;51.982;5.872;2022-07-23T14:58:06;2.92;;;2.55;;
47349;SDS011;33088;51.982;5.872;2022-07-23T15:00:32;2.40;;;2.00;;
47349;SDS011;33088;51.982;5.872;2022-07-23T15:02:58;4.25;;;2.28;;
47349;SDS011;33088;51.982;5.872;2022-07-23T15:05:23;2.05;;;1.90;;
47349;SDS011;33088;51.982;5.872;2022-07-23T15:07:49;4.95;;;2.40;;
47349;SDS011;33088;51.982;5.872;2022-07-23T15:10:15;2.38;;;1.98;;
47349;SDS011;33088;51.982;5.872;2022-07-23T15:12:41;5.45;;;2.75;;
47349;SDS011;33088;51.982;5.872;2022-07-23T15:15:07;2.20;;;2.08;;
47349;SDS011;33088;51.982;5.872;2022-07-23T15:17:33;3.55;;;2.38;;
47349;SDS011;33088;51.982;5.872;2022-07-23T15:19:59;2.88;;;2.00;;
47349;SDS011;33088;51.982;5.872;2022-07-23T15:22:27;2.97;;;1.90;;
47349;SDS011;33088;51.982;5.872;2022-07-23T15:24:53;2.70;;;2.20;;
47349;SDS011;33088;51.982;5.872;2022-07-23T15:27:19;4.55;;;2.38;;
47349;SDS011;33088;51.982;5.872;2022-07-23T15:29:45;2.10;;;1.90;;
47349;SDS011;33088;51.982;5.872;2022-07-23T15:32:10;4.30;;;2.10;;
47349;SDS011;33088;51.982;5.872;2022-07-23T15:34:39;5.45;;;2.70;;
47349;SDS011;33088;51.982;5.872;2022-07-23T15:37:06;2.72;;;2.30;;
47349;SDS011;33088;51.982;5.872;2022-07-23T15:39:32;2.97;;;2.15;;
47349;SDS011;33088;51.982;5.872;2022-07-23T15:41:59;3.40;;;2.00;;
47349;SDS011;33088;51.982;5.872;2022-07-23T15:44:25;2.45;;;1.80;;
47349;SDS011;33088;51.982;5.872;2022-07-23T15:46:51;2.70;;;2.17;;
47349;SDS011;33088;51.982;5.872;2022-07-23T15:49:17;6.80;;;2.10;;
47349;SDS011;33088;51.982;5.872;2022-07-23T15:51:44;2.53;;;2.30;;
47349;SDS011;33088;51.982;5.872;2022-07-23T15:54:10;2.30;;;2.08;;
47349;SDS011;33088;51.982;5.872;2022-07-23T15:56:36;3.00;;;2.60;;
47349;SDS011;33088;51.982;5.872;2022-07-23T15:59:02;4.45;;;2.10;;
47349;SDS011;33088;51.982;5.872;2022-07-23T16:01:27;1.83;;;1.73;;